METAR K3S8 220215Z AUTO 30007KT 10SM 04/02 A3022


AIRPORT ID: 3S8

DATE(M/D/Y): 2/22/2018 2:15 Z 18:15 L


WIND DIRECT: 320

WIND SPEED: 7 KT

WIND CONDITIONS:

VISIBILTY: 10 SM 9999 M

TEMPERATURE: 40 F 4 C

DEW POINT: 36 F 2 C

ALTIMETER: A3022 Q1023

DENSITY ALT: -100 FT

HUMID: 84%

LCL: 500-1,000 FT


RADIO CHECK: 0

ADVISORIES: 1

GREETINGS: 0

CONVERSATIONS: 0